Time;durP1;ratioP1;P1;durP2;ratioP2;P2;SDS_P1;SDS_P2;PMS_P1;PMS_P2;Temp;Humidity;BMP_temperature;BMP_pressure;BME280_temperature;BME280_humidity;BME280_pressure;Samples;Min_cycle;Max_cycle;Signal;HPM_P1;HPM_P2
2022/08/23 00:02:26;;;;;;;3.83;1.73;;;;;;;19.64;93.48;99090.19;5081745;28;20047;-70
2022/08/23 00:04:56;;;;;;;2.17;1.90;;;;;;;19.63;93.41;99078.13;5066431;28;20443;-69
2022/08/23 00:07:42;;;;;;;1.42;1.02;;;;;;;19.64;93.56;99089.34;5080808;28;20402;-71
2022/08/23 00:10:13;;;;;;;0.70;0.70;;;;;;;19.64;93.72;99090.19;5080662;28;20098;-72
2022/08/23 00:12:43;;;;;;;3.85;2.05;;;;;;;19.64;93.37;99079.81;5086642;28;20058;-70
2022/08/23 00:15:16;;;;;;;1.35;1.25;;;;;;;19.61;93.63;99079.97;5087138;28;20083;-69
2022/08/23 00:17:46;;;;;;;0.82;0.82;;;;;;;19.67;93.72;99084.88;5078957;28;20048;-70
2022/08/23 00:20:18;;;;;;;1.65;1.25;;;;;;;19.62;93.77;99092.00;5071448;28;20060;-70
2022/08/23 00:22:48;;;;;;;2.38;1.75;;;;;;;19.66;93.63;99100.44;5074937;28;20044;-68
2022/08/23 00:25:17;;;;;;;1.83;1.38;;;;;;;19.67;93.71;99094.38;5084026;28;20079;-69
2022/08/23 00:27:46;;;;;;;3.25;1.77;;;;;;;19.69;93.67;99085.63;5078936;28;20445;-69
2022/08/23 00:30:16;;;;;;;3.30;2.13;;;;;;;19.63;93.50;99091.06;5076977;28;20036;-69
2022/08/23 00:32:45;;;;;;;1.75;1.65;;;;;;;19.67;93.53;99103.00;5070993;28;20284;-71
2022/08/23 00:35:16;;;;;;;1.13;1.02;;;;;;;19.63;93.72;99106.63;5083521;28;20117;-70
2022/08/23 00:37:56;;;;;;;1.58;1.48;;;;;;;19.64;93.44;99107.47;5069759;28;20036;-69
2022/08/23 00:40:49;;;;;;;0.65;0.65;;;;;;;19.65;93.57;99102.19;5062544;28;20052;-69
2022/08/23 00:48:51;;;;;;;1.88;1.45;;;;;;;19.70;93.79;99105.41;5064258;28;20406;-70
2022/08/23 00:51:28;;;;;;;1.55;1.40;;;;;;;19.68;93.68;99106.41;5090594;28;20052;-69
2022/08/23 00:54:01;;;;;;;4.63;1.50;;;;;;;19.67;93.63;99100.41;5068283;28;20049;-70
2022/08/23 00:56:33;;;;;;;4.30;2.92;;;;;;;19.67;93.75;99099.56;5066210;28;20044;-71
2022/08/23 00:59:02;;;;;;;1.40;1.30;;;;;;;19.64;93.57;99110.91;5068037;28;20037;-68
2022/08/23 01:01:32;;;;;;;2.17;0.80;;;;;;;19.61;93.41;99099.81;5082285;28;20490;-67
2022/08/23 01:04:01;;;;;;;2.30;2.10;;;;;;;19.63;93.42;99103.19;5078872;28;20268;-70
2022/08/23 01:06:35;;;;;;;1.23;1.13;;;;;;;19.68;93.54;99101.22;5064733;28;20056;-68
2022/08/23 01:09:09;;;;;;;3.92;1.63;;;;;;;19.66;93.58;99109.06;5058731;28;20037;-68
2022/08/23 01:11:42;;;;;;;0.70;0.70;;;;;;;19.66;93.69;99111.66;5063158;28;20037;-69
2022/08/23 01:14:17;;;;;;;1.50;1.38;;;;;;;19.66;93.53;99105.63;5058946;28;20126;-70
2022/08/23 01:16:51;;;;;;;4.15;2.55;;;;;;;19.64;93.47;99116.06;5061427;28;20045;-67
2022/08/23 01:19:25;;;;;;;2.45;2.15;;;;;;;19.63;93.33;99114.38;5066626;28;20124;-69
2022/08/23 01:22:03;;;;;;;2.40;1.98;;;;;;;19.65;93.76;99107.38;5062777;28;20044;-68
2022/08/23 01:24:35;;;;;;;2.13;1.67;;;;;;;19.66;93.58;99113.41;5064452;28;20052;-70
2022/08/23 01:27:25;;;;;;;0.80;0.80;;;;;;;19.63;93.21;99119.56;5062724;28;20072;-70
2022/08/23 01:29:53;;;;;;;1.38;1.27;;;;;;;19.67;93.47;99121.13;5065576;28;20036;-68
2022/08/23 01:32:24;;;;;;;2.28;1.60;;;;;;;19.67;93.48;99115.94;5055623;28;20091;-70
2022/08/23 01:34:53;;;;;;;2.60;2.22;;;;;;;19.67;93.39;99120.28;5068995;28;20044;-70
2022/08/23 01:37:22;;;;;;;2.80;2.53;;;;;;;19.63;93.40;99127.31;5059664;28;20101;-70
2022/08/23 01:39:54;;;;;;;1.92;1.73;;;;;;;19.62;93.58;99125.66;5058907;28;20037;-69
2022/08/23 01:42:23;;;;;;;1.77;1.67;;;;;;;19.63;93.50;99129.91;5067161;28;20036;-70
2022/08/23 01:44:52;;;;;;;1.30;0.98;;;;;;;19.66;93.54;99129.78;5057263;28;20034;-70
2022/08/23 01:47:21;;;;;;;1.67;1.30;;;;;;;19.65;93.40;99133.28;5061607;28;20098;-69
2022/08/23 01:49:49;;;;;;;1.60;1.27;;;;;;;19.62;93.42;99130.84;5059802;28;20483;-71
2022/08/23 01:52:18;;;;;;;1.23;1.13;;;;;;;19.64;93.45;99134.19;5059157;28;20039;-70
2022/08/23 01:54:47;;;;;;;2.00;1.77;;;;;;;19.64;93.42;99129.03;5061574;28;20041;-69
2022/08/23 01:57:17;;;;;;;2.50;2.17;;;;;;;19.63;93.34;99137.69;5060276;28;20078;-69
2022/08/23 01:59:46;;;;;;;1.77;1.67;;;;;;;19.64;93.33;99136.78;5052195;28;20056;-69
2022/08/23 02:02:15;;;;;;;10.88;2.20;;;;;;;19.66;93.35;99134.97;5057923;28;20041;-71
2022/08/23 02:04:43;;;;;;;5.87;2.27;;;;;;;19.63;93.24;99137.69;5064096;28;20040;-70
2022/08/23 02:07:12;;;;;;;1.50;1.40;;;;;;;19.63;93.31;99135.09;5068720;28;20147;-72
2022/08/23 02:09:41;;;;;;;1.57;1.47;;;;;;;19.58;93.19;99142.22;5058013;28;20041;-70
2022/08/23 02:12:10;;;;;;;;;;;;;;;19.58;93.49;99144.81;5054683;28;20041;-72
2022/08/23 02:14:42;;;;;;;0.60;0.60;;;;;;;19.57;93.29;99143.16;5057653;28;20023;-70
2022/08/23 02:17:19;;;;;;;;;;;;;;;19.56;93.50;99144.06;5063893;28;20048;-70
2022/08/23 02:19:47;;;;;;;1.15;1.10;;;;;;;19.54;93.41;99145.88;5065326;28;19921;-70
2022/08/23 02:22:17;;;;;;;;;;;;;;;19.50;93.37;99153.84;5058354;28;20479;-68
2022/08/23 02:24:48;;;;;;;5.27;1.80;;;;;;;19.46;93.44;99155.72;5064811;28;19942;-71
2022/08/23 02:27:17;;;;;;;2.22;1.98;;;;;;;19.45;93.59;99161.84;5065104;28;20045;-70
2022/08/23 02:29:49;;;;;;;1.80;1.63;;;;;;;19.46;93.63;99163.50;5060844;28;20051;-71
2022/08/23 02:32:20;;;;;;;1.75;1.60;;;;;;;19.47;93.67;99160.00;5063746;28;20052;-71
2022/08/23 02:34:56;;;;;;;1.42;1.33;;;;;;;19.48;93.89;99161.72;5060099;28;20048;-69
2022/08/23 02:37:34;;;;;;;;;;;;;;;19.47;93.98;99162.59;5059939;28;20455;-69
2022/08/23 02:40:05;;;;;;;3.20;1.45;;;;;;;19.47;93.65;99160.00;5054186;28;20007;-69
2022/08/23 02:42:35;;;;;;;24.58;2.13;;;;;;;19.48;94.06;99161.72;5061426;28;20045;-69
2022/08/23 02:45:07;;;;;;;2.03;1.30;;;;;;;19.47;94.06;99159.16;5063717;28;20029;-70
2022/08/23 02:47:44;;;;;;;1.77;1.48;;;;;;;19.44;93.97;99160.13;5069359;28;20045;-70
2022/08/23 02:50:21;;;;;;;3.08;2.15;;;;;;;19.43;94.04;99166.25;5059453;28;20048;-69
2022/08/23 02:52:50;;;;;;;1.75;1.23;;;;;;;19.42;94.08;99161.97;5064441;28;20056;-72
2022/08/23 02:55:19;;;;;;;0.83;0.83;;;;;;;19.43;94.28;99162.81;5060339;28;20045;-71
2022/08/23 02:57:48;;;;;;;1.48;1.15;;;;;;;19.40;94.26;99163.78;5059393;28;20083;-69
2022/08/23 03:00:20;;;;;;;1.13;1.03;;;;;;;19.41;94.24;99169.81;5065288;28;20033;-69
2022/08/23 03:02:51;;;;;;;0.80;0.80;;;;;;;19.42;94.02;99166.28;5059179;28;20072;-71
2022/08/23 03:05:20;;;;;;;1.20;1.10;;;;;;;19.41;94.34;99165.47;5056852;28;20155;-69
2022/08/23 03:07:49;;;;;;;1.75;1.20;;;;;;;19.41;94.34;99169.81;5077168;28;20051;-72
2022/08/23 03:10:18;;;;;;;1.47;1.13;;;;;;;19.40;94.33;99174.13;5074613;28;20048;-70
2022/08/23 03:12:53;;;;;;;0.63;0.63;;;;;;;19.39;94.28;99172.44;5088712;28;20376;-70
2022/08/23 03:15:23;;;;;;;0.95;0.95;;;;;;;19.39;94.31;99177.63;5056315;28;20041;-70
2022/08/23 03:17:52;;;;;;;1.05;0.95;;;;;;;19.36;94.27;99172.59;5074541;28;20048;-68
2022/08/23 03:20:21;;;;;;;0.60;0.60;;;;;;;19.34;94.22;99177.78;5055866;28;20046;-70
2022/08/23 03:22:52;;;;;;;1.65;1.55;;;;;;;19.34;94.31;99184.72;5082317;28;20135;-72
2022/08/23 03:25:25;;;;;;;1.67;1.50;;;;;;;19.34;94.31;99185.56;5076477;28;20067;-70
2022/08/23 03:28:07;;;;;;;1.25;1.15;;;;;;;19.32;94.24;99182.22;5089504;28;20134;-69
2022/08/23 03:30:43;;;;;;;1.13;1.05;;;;;;;19.28;94.19;99190.19;5083289;28;20066;-71
2022/08/23 03:33:13;;;;;;;1.20;1.10;;;;;;;19.30;94.35;99196.13;5083384;28;20483;-69
2022/08/23 03:35:43;;;;;;;2.10;1.65;;;;;;;19.30;94.50;99189.19;5078697;28;20044;-70
2022/08/23 03:38:14;;;;;;;0.50;0.47;;;;;;;19.31;94.43;99187.47;5076601;28;20055;-71
2022/08/23 03:40:44;;;;;;;1.48;1.00;;;;;;;19.32;94.26;99196.88;5060325;28;20072;-70
2022/08/23 03:43:13;;;;;;;;;;;;;;;19.32;94.54;99191.72;5060281;28;20071;-71
2022/08/23 03:45:43;;;;;;;2.83;1.77;;;;;;;19.32;94.51;99191.72;5061655;28;20030;-70
2022/08/23 03:48:13;;;;;;;2.05;1.40;;;;;;;19.33;94.71;99190.81;5073745;28;20532;-72
2022/08/23 03:50:42;;;;;;;1.17;1.08;;;;;;;19.28;94.55;99190.19;5088098;28;20123;-70
2022/08/23 03:53:11;;;;;;;4.82;2.25;;;;;;;19.30;94.68;99188.34;5088672;28;20036;-70
2022/08/23 03:55:43;;;;;;;1.67;1.50;;;;;;;19.29;94.77;99194.47;5068776;28;20089;-68
2022/08/23 03:58:16;;;;;;;2.00;1.42;;;;;;;19.30;94.69;99196.97;5078268;28;20110;-72
2022/08/23 04:00:47;;;;;;;0.80;0.80;;;;;;;19.28;94.86;99201.38;5077786;28;20071;-68
2022/08/23 04:03:17;;;;;;;1.50;1.40;;;;;;;19.31;94.73;99215.94;5077219;28;20135;-72
2022/08/23 04:06:01;;;;;;;4.13;1.52;;;;;;;19.33;94.60;99211.53;5072908;28;20580;-69
2022/08/23 04:08:32;;;;;;;12.65;1.73;;;;;;;19.35;94.61;99212.28;5045402;28;20549;-70
2022/08/23 04:11:04;;;;;;;0.70;0.70;;;;;;;19.35;94.90;99217.47;5036150;28;20045;-72
2022/08/23 04:13:35;;;;;;;2.65;1.25;;;;;;;19.35;94.90;99217.47;5037805;28;20094;-71
2022/08/23 04:16:06;;;;;;;1.85;1.02;;;;;;;19.34;94.74;99220.94;5038848;28;20369;-69
2022/08/23 04:18:35;;;;;;;0.60;0.60;;;;;;;19.32;94.80;99217.59;5039146;28;20128;-69
2022/08/23 04:21:10;;;;;;;0.75;0.75;;;;;;;19.31;94.89;99223.69;5043329;28;20037;-69
2022/08/23 04:23:39;;;;;;;0.85;0.80;;;;;;;19.26;94.57;99229.06;5043191;28;20041;-70
2022/08/23 04:26:10;;;;;;;1.85;0.98;;;;;;;19.28;94.64;99229.00;5047091;28;20052;-71
2022/08/23 04:28:41;;;;;;;0.88;0.70;;;;;;;19.28;94.52;99232.44;5035228;28;20447;-69
2022/08/23 04:31:16;;;;;;;0.88;0.88;;;;;;;19.27;94.55;99227.28;5036345;28;20044;-73
2022/08/23 04:33:48;;;;;;;2.35;0.90;;;;;;;19.27;94.62;99230.72;5038515;28;20438;-70
2022/08/23 04:36:21;;;;;;;0.90;0.90;;;;;;;19.28;94.32;99226.41;5042967;28;20040;-69
2022/08/23 04:38:52;;;;;;;0.60;0.60;;;;;;;19.31;94.63;99224.53;5039773;28;20537;-70
2022/08/23 04:44:00;;;;;;;1.55;1.25;;;;;;;19.30;94.16;99230.59;5041124;28;20301;-69
2022/08/23 04:46:32;;;;;;;0.60;0.60;;;;;;;19.29;94.33;99225.50;5052262;28;20487;-72
2022/08/23 04:49:04;;;;;;;0.57;0.57;;;;;;;19.25;94.25;99234.28;5042120;28;20048;-69
2022/08/23 04:51:33;;;;;;;0.70;0.70;;;;;;;19.25;94.29;99231.69;5046680;28;20063;-68
2022/08/23 04:54:02;;;;;;;0.52;0.52;;;;;;;19.26;94.25;99230.81;5047406;28;20087;-70
2022/08/23 04:56:42;;;;;;;0.68;0.68;;;;;;;19.32;94.33;99235.72;5045066;28;20045;-70
2022/08/23 04:59:19;;;;;;;0.60;0.60;;;;;;;19.36;94.27;99239.91;5042167;28;20042;-71
2022/08/23 05:01:51;;;;;;;1.35;1.25;;;;;;;19.42;94.25;99239.63;5050077;28;20111;-71
2022/08/23 05:04:20;;;;;;;0.65;0.65;;;;;;;19.44;94.26;99237.78;5055847;28;20049;-72
2022/08/23 05:06:50;;;;;;;1.30;1.20;;;;;;;19.47;94.50;99235.09;5049558;28;20067;-68
2022/08/23 05:09:23;;;;;;;0.65;0.63;;;;;;;19.48;94.18;99233.34;5076908;28;20119;-71
2022/08/23 05:11:53;;;;;;;0.70;0.70;;;;;;;19.49;93.97;99240.19;5061551;28;20158;-70
2022/08/23 05:14:24;;;;;;;0.50;0.50;;;;;;;19.48;93.78;99244.53;5063797;28;20478;-71
2022/08/23 05:16:54;;;;;;;2.42;1.02;;;;;;;19.49;93.91;99246.22;5062927;28;20044;-71
2022/08/23 05:19:24;;;;;;;5.82;1.27;;;;;;;19.54;94.04;99249.44;5082305;28;20052;-70
2022/08/23 05:21:52;;;;;;;2.10;1.13;;;;;;;19.54;94.00;99248.59;5083538;28;20076;-73
2022/08/23 05:24:39;;;;;;;1.02;0.98;;;;;;;19.51;93.74;99254.75;5062629;28;20097;-72
2022/08/23 05:27:09;;;;;;;0.68;0.68;;;;;;;19.49;93.59;99248.78;5062234;28;20094;-68
2022/08/23 05:29:41;;;;;;;2.00;1.00;;;;;;;19.52;93.59;99259.03;5064319;28;20041;-68
2022/08/23 05:32:11;;;;;;;0.82;0.82;;;;;;;19.57;93.78;99254.50;5049440;28;20437;-71
2022/08/23 05:34:40;;;;;;;1.08;0.82;;;;;;;19.58;93.48;99261.31;5072508;28;20064;-68
2022/08/23 05:37:11;;;;;;;0.95;0.88;;;;;;;19.56;93.45;99262.31;5079468;28;20049;-70
2022/08/23 05:39:41;;;;;;;0.75;0.75;;;;;;;19.57;93.44;99262.25;5071927;28;20050;-72
2022/08/23 05:42:15;;;;;;;1.45;1.17;;;;;;;19.58;93.44;99261.31;5087440;28;20040;-72
2022/08/23 05:44:45;;;;;;;0.80;0.80;;;;;;;19.57;93.53;99264.84;5078935;28;20053;-69
2022/08/23 05:47:19;;;;;;;0.70;0.70;;;;;;;19.57;93.43;99267.44;5062719;28;20071;-69
2022/08/23 05:50:16;;;;;;;0.93;0.93;;;;;;;19.55;93.77;99261.47;5057996;28;20097;-69
2022/08/23 05:52:45;;;;;;;2.00;1.43;;;;;;;19.61;93.57;99270.72;5059516;28;20059;-72
2022/08/23 05:55:20;;;;;;;0.73;0.60;;;;;;;19.59;93.56;99273.38;5090581;28;20294;-68
2022/08/23 05:58:13;;;;;;;2.00;1.30;;;;;;;19.60;93.53;99272.47;5060000;28;20052;-72
2022/08/23 06:00:41;;;;;;;0.57;0.57;;;;;;;19.57;93.44;99280.38;5076294;28;20462;-68
2022/08/23 06:03:13;;;;;;;0.80;0.80;;;;;;;19.53;93.35;99278.81;5078098;28;20087;-70
2022/08/23 06:05:42;;;;;;;1.00;0.90;;;;;;;19.60;93.44;99272.47;5077743;28;20047;-68
2022/08/23 06:08:12;;;;;;;1.00;0.90;;;;;;;19.58;93.48;99271.69;5077473;28;20052;-69
2022/08/23 06:10:40;;;;;;;2.07;1.13;;;;;;;19.62;93.32;99273.25;5077725;28;20089;-70
2022/08/23 06:13:21;;;;;;;3.50;1.40;;;;;;;19.63;93.27;99274.06;5095939;28;20566;-69
2022/08/23 06:15:49;;;;;;;2.38;1.67;;;;;;;19.65;93.40;99274.88;5095825;28;20390;-72
2022/08/23 06:18:20;;;;;;;1.50;1.23;;;;;;;19.68;93.51;99277.31;5077397;28;20048;-72
2022/08/23 06:21:01;;;;;;;1.65;1.38;;;;;;;19.63;93.51;99280.09;5095507;28;20040;-68
2022/08/23 06:23:40;;;;;;;1.23;1.13;;;;;;;19.64;93.45;99281.78;5077522;28;20123;-72
2022/08/23 06:26:11;;;;;;;1.63;0.88;;;;;;;19.65;93.45;99283.44;5077626;28;20126;-71
2022/08/23 06:28:40;;;;;;;2.13;1.92;;;;;;;19.71;93.58;99288.38;5095710;28;20040;-72
2022/08/23 06:31:44;;;;;;;1.50;1.40;;;;;;;19.72;93.47;99284.91;5077526;28;20079;-72
2022/08/23 06:34:18;;;;;;;2.47;2.03;;;;;;;19.72;93.22;99290.06;5095222;28;20486;-70
2022/08/23 06:37:00;;;;;;;0.77;0.70;;;;;;;19.76;93.31;99291.59;5095501;28;20512;-67
2022/08/23 06:39:56;;;;;;;0.65;0.65;;;;;;;19.78;93.20;99297.56;5094402;28;20036;-68
2022/08/23 06:42:37;;;;;;;0.65;0.65;;;;;;;19.79;93.30;99291.47;5095160;28;20048;-72
2022/08/23 06:45:09;;;;;;;0.45;0.45;;;;;;;19.85;93.19;99291.19;5076920;28;20075;-72
2022/08/23 06:47:42;;;;;;;1.05;0.95;;;;;;;19.87;93.05;99289.38;5094157;28;20043;-70
2022/08/23 06:50:12;;;;;;;0.77;0.77;;;;;;;19.92;92.72;99292.59;5094906;28;20126;-67
2022/08/23 06:52:52;;;;;;;0.90;0.90;;;;;;;19.98;93.06;99289.75;5094912;28;20272;-68
2022/08/23 06:55:33;;;;;;;0.73;0.73;;;;;;;20.02;93.21;99296.47;5095165;28;20056;-72
2022/08/23 06:58:12;;;;;;;0.95;0.90;;;;;;;20.05;92.93;99293.75;5094707;28;20044;-72
2022/08/23 07:01:17;;;;;;;2.28;1.35;;;;;;;20.05;92.81;99298.94;5094867;28;20048;-68
2022/08/23 07:04:13;;;;;;;1.70;1.13;;;;;;;20.06;92.68;99297.16;5094742;28;20446;-72
2022/08/23 07:06:55;;;;;;;1.25;0.90;;;;;;;20.14;92.56;99302.00;5093182;28;20498;-68
2022/08/23 07:09:25;;;;;;;0.98;0.88;;;;;;;20.19;92.61;99300.03;5084171;28;20075;-70
2022/08/23 07:11:56;;;;;;;1.48;1.00;;;;;;;20.18;92.35;99309.56;5074784;28;20368;-68
2022/08/23 07:14:26;;;;;;;1.15;0.82;;;;;;;20.18;92.11;99308.75;5074032;28;20048;-68
2022/08/23 07:16:58;;;;;;;2.40;1.02;;;;;;;20.20;91.83;99317.28;5056645;28;20399;-72
2022/08/23 07:19:29;;;;;;;0.60;0.60;;;;;;;20.20;91.72;99327.66;5073998;28;20083;-67
2022/08/23 07:22:01;;;;;;;1.42;1.33;;;;;;;20.20;91.39;99335.41;5056599;28;20052;-71
2022/08/23 07:24:30;;;;;;;1.38;0.98;;;;;;;20.22;91.42;99328.41;5056292;28;20502;-72
2022/08/23 07:27:05;;;;;;;1.05;0.85;;;;;;;20.19;91.27;99329.38;5073962;28;20041;-71
2022/08/23 07:29:40;;;;;;;2.03;1.83;;;;;;;20.23;91.04;99335.31;5073986;28;20048;-72
2022/08/23 07:32:10;;;;;;;7.80;1.30;;;;;;;20.27;91.01;99344.63;5056155;28;20052;-72
2022/08/23 07:34:40;;;;;;;2.78;1.52;;;;;;;20.33;90.78;99340.00;5056575;28;20490;-70
2022/08/23 07:37:12;;;;;;;1.85;1.13;;;;;;;20.40;90.82;99350.91;5073875;28;20048;-68
2022/08/23 07:39:44;;;;;;;1.10;0.77;;;;;;;20.39;90.29;99346.66;5082015;28;20067;-70
2022/08/23 07:42:13;;;;;;;;;;;;;;;20.39;90.07;99354.44;5076186;28;20055;-73
2022/08/23 07:44:56;;;;;;;10.63;2.97;;;;;;;20.42;90.17;99360.31;5074009;28;19920;-70
2022/08/23 07:47:29;;;;;;;2.28;1.05;;;;;;;20.44;89.96;99349.88;5073734;28;20059;-72
2022/08/23 07:49:59;;;;;;;0.65;0.65;;;;;;;20.44;89.68;99358.47;5073761;28;20044;-68
2022/08/23 07:52:32;;;;;;;3.47;1.45;;;;;;;20.47;89.25;99357.50;5055882;28;20040;-70
2022/08/23 07:55:01;;;;;;;0.60;0.60;;;;;;;20.49;89.27;99358.31;5066772;28;20139;-70
2022/08/23 07:57:49;;;;;;;0.90;0.90;;;;;;;20.45;88.98;99356.75;5085384;28;20044;-71
2022/08/23 08:00:29;;;;;;;3.95;2.28;;;;;;;20.39;88.48;99367.41;5073581;28;20145;-68
2022/08/23 08:03:11;;;;;;;2.70;1.63;;;;;;;20.41;88.71;99365.56;5055536;28;20053;-68
2022/08/23 08:06:00;;;;;;;1.50;1.40;;;;;;;20.41;88.64;99368.16;5075980;28;20037;-72
2022/08/23 08:08:31;;;;;;;5.72;1.20;;;;;;;20.40;89.05;99377.69;5067282;28;20047;-74
2022/08/23 08:11:00;;;;;;;0.80;0.80;;;;;;;20.38;89.01;99378.66;5055818;28;20072;-70
2022/08/23 08:13:30;;;;;;;1.97;1.60;;;;;;;20.34;89.34;99379.72;5055818;28;20032;-68
2022/08/23 08:16:00;;;;;;;1.15;0.98;;;;;;;20.30;89.25;99385.97;5055452;28;20063;-68
2022/08/23 08:18:31;;;;;;;1.70;1.20;;;;;;;20.27;89.74;99380.91;5055507;28;20052;-71
2022/08/23 08:21:28;;;;;;;1.13;0.98;;;;;;;20.33;89.76;99391.00;5057317;28;20502;-72
2022/08/23 08:24:19;;;;;;;1.85;1.60;;;;;;;20.36;89.89;99385.69;5072765;28;20128;-68
2022/08/23 08:26:51;;;;;;;1.50;1.40;;;;;;;20.47;90.06;99391.22;5055296;28;20049;-70
2022/08/23 08:29:20;;;;;;;1.67;1.27;;;;;;;20.47;90.02;99399.00;5055360;28;20052;-72
2022/08/23 08:31:51;;;;;;;1.23;1.13;;;;;;;20.49;90.44;99397.19;5079773;28;20122;-68
2022/08/23 08:34:22;;;;;;;0.95;0.85;;;;;;;20.54;90.44;99402.97;5093305;28;20455;-68
2022/08/23 08:36:53;;;;;;;0.85;0.82;;;;;;;20.61;90.64;99402.63;5075357;28;20074;-70
2022/08/23 08:39:29;;;;;;;1.88;1.45;;;;;;;20.63;90.73;99407.78;5093426;28;20093;-68
2022/08/23 08:42:17;;;;;;;1.08;0.98;;;;;;;20.63;90.67;99410.38;5075670;28;20397;-68
2022/08/23 08:44:51;;;;;;;1.50;1.02;;;;;;;20.68;90.28;99414.41;5093298;28;20048;-69
2022/08/23 08:47:34;;;;;;;1.73;1.63;;;;;;;20.81;90.29;99409.50;5075348;28;20510;-68
2022/08/23 08:50:13;;;;;;;1.30;1.17;;;;;;;20.98;90.46;99417.34;5093627;28;20498;-68
2022/08/23 08:52:47;;;;;;;1.90;1.52;;;;;;;21.05;90.54;99412.72;5093160;28;20048;-71
2022/08/23 08:55:37;;;;;;;1.05;1.00;;;;;;;21.21;90.58;99414.50;5093309;28;20075;-68
2022/08/23 08:58:07;;;;;;;0.82;0.82;;;;;;;21.29;90.33;99411.56;5073723;28;20051;-72
2022/08/23 09:00:39;;;;;;;0.70;0.70;;;;;;;21.41;90.33;99420.50;5075162;28;20482;-70
2022/08/23 09:03:12;;;;;;;0.70;0.63;;;;;;;21.46;90.14;99416.78;5075443;28;20048;-68
2022/08/23 09:05:52;;;;;;;1.85;1.65;;;;;;;21.51;89.60;99426.94;5075353;28;20447;-70
2022/08/23 09:08:37;;;;;;;2.17;0.80;;;;;;;21.55;89.25;99423.25;5074875;28;20090;-68
2022/08/23 09:11:14;;;;;;;0.60;0.60;;;;;;;21.59;89.24;99424.81;5077723;28;20044;-71
2022/08/23 09:14:01;;;;;;;1.08;0.98;;;;;;;21.63;88.58;99431.50;5096887;28;20092;-68
2022/08/23 09:16:47;;;;;;;1.20;1.08;;;;;;;21.67;88.75;99427.84;5079728;28;20533;-68
2022/08/23 09:19:19;;;;;;;0.93;0.93;;;;;;;21.59;88.28;99430.00;5096672;28;20048;-70
2022/08/23 09:21:56;;;;;;;2.17;0.93;;;;;;;21.46;87.88;99434.09;5094270;28;20044;-68
2022/08/23 09:24:27;;;;;;;1.15;1.00;;;;;;;21.40;87.49;99429.22;5058574;28;20490;-72
2022/08/23 09:27:21;;;;;;;0.70;0.70;;;;;;;21.38;87.28;99430.13;5061510;28;20086;-70
2022/08/23 09:29:56;;;;;;;1.27;0.70;;;;;;;21.41;87.65;99430.88;5058736;28;20044;-68
2022/08/23 09:32:32;;;;;;;0.85;0.82;;;;;;;21.46;87.81;99428.91;5080108;28;20036;-68
2022/08/23 09:35:14;;;;;;;1.30;0.88;;;;;;;21.48;87.73;99417.53;5076123;28;20040;-72
2022/08/23 09:37:59;;;;;;;1.55;1.02;;;;;;;21.55;88.05;99428.44;5076344;28;20123;-72
2022/08/23 09:40:35;;;;;;;1.75;1.45;;;;;;;21.60;88.05;99429.06;5058472;28;20397;-69
2022/08/23 09:43:15;;;;;;;1.10;0.95;;;;;;;21.55;88.03;99428.44;5076068;28;20072;-68
2022/08/23 09:45:56;;;;;;;0.50;0.50;;;;;;;21.49;88.00;99423.56;5076285;28;20135;-68
2022/08/23 09:48:38;;;;;;;1.48;1.38;;;;;;;21.43;87.35;99423.88;5058398;28;20059;-68
2022/08/23 09:51:22;;;;;;;1.10;1.00;;;;;;;21.47;87.11;99428.00;5058198;28;20055;-70
2022/08/23 09:54:05;;;;;;;0.95;0.85;;;;;;;21.49;86.80;99423.56;5085767;28;20067;-71
2022/08/23 09:56:39;;;;;;;0.60;0.60;;;;;;;21.62;87.00;99424.66;5058233;28;20040;-68
2022/08/23 09:59:30;;;;;;;1.15;1.08;;;;;;;21.73;86.73;99432.75;5057691;28;20098;-72
2022/08/23 10:02:16;;;;;;;0.88;0.85;;;;;;;21.86;86.74;99429.47;5058093;28;20044;-69
2022/08/23 10:04:57;;;;;;;0.80;0.80;;;;;;;22.06;86.94;99431.06;5057806;28;20051;-68
2022/08/23 10:07:33;;;;;;;0.70;0.70;;;;;;;22.26;86.59;99436.09;5075386;28;20087;-68
2022/08/23 10:10:22;;;;;;;0.80;0.80;;;;;;;22.26;86.17;99428.28;5057665;28;20048;-68
2022/08/23 10:12:57;;;;;;;0.75;0.75;;;;;;;22.20;85.60;99422.53;5076976;28;20079;-68
2022/08/23 10:15:40;;;;;;;0.82;0.82;;;;;;;22.29;85.67;99438.50;5073430;28;20071;-72
2022/08/23 10:18:19;;;;;;;0.60;0.60;;;;;;;22.42;85.73;99434.34;5060531;28;20086;-68
2022/08/23 10:20:56;;;;;;;0.70;0.70;;;;;;;22.45;85.72;99439.41;5057168;28;20058;-68
2022/08/23 10:23:40;;;;;;;0.70;0.70;;;;;;;22.47;85.66;99434.94;5057750;28;20052;-69
2022/08/23 10:26:22;;;;;;;0.95;0.90;;;;;;;22.46;85.65;99440.22;5075556;28;20048;-67
2022/08/23 10:31:48;;;;;;;1.05;0.95;;;;;;;22.58;85.94;99431.75;5076869;28;20044;-71
2022/08/23 10:34:28;;;;;;;1.20;1.10;;;;;;;22.65;85.87;99434.00;5057163;28;20052;-71
2022/08/23 10:37:13;;;;;;;0.60;0.60;;;;;;;22.66;85.24;99438.28;5074957;28;20053;-71
2022/08/23 10:39:48;;;;;;;0.88;0.88;;;;;;;22.61;84.43;99444.66;5076195;28;20044;-71
2022/08/23 10:42:26;;;;;;;0.85;0.75;;;;;;;22.67;84.11;99445.16;5082406;28;20495;-71
2022/08/23 10:45:03;;;;;;;1.42;1.33;;;;;;;22.74;84.01;99450.03;5057134;28;20059;-70
2022/08/23 10:47:40;;;;;;;0.73;0.73;;;;;;;22.66;83.47;99446.09;5074922;28;20102;-70
2022/08/23 10:50:20;;;;;;;0.60;0.60;;;;;;;22.56;83.01;99450.06;5088019;28;20135;-70
2022/08/23 10:52:54;;;;;;;0.85;0.85;;;;;;;22.57;83.02;99451.75;5080345;28;20493;-69
2022/08/23 10:55:42;;;;;;;0.65;0.65;;;;;;;22.54;82.99;99449.31;5058234;28;20048;-68
2022/08/23 10:58:22;;;;;;;1.40;1.10;;;;;;;22.47;82.57;99447.97;5074812;28;20120;-69
2022/08/23 11:00:54;;;;;;;1.25;1.15;;;;;;;22.35;81.86;99448.59;5056481;28;20067;-70
2022/08/23 11:03:29;;;;;;;0.50;0.50;;;;;;;22.31;81.92;99448.84;5072391;28;20044;-69
2022/08/23 11:06:21;;;;;;;0.85;0.80;;;;;;;22.32;81.99;99443.56;5066652;28;20371;-70
2022/08/23 11:08:58;;;;;;;0.52;0.52;;;;;;;22.41;81.93;99443.06;5077050;28;20036;-69
2022/08/23 11:11:41;;;;;;;1.23;1.08;;;;;;;22.50;81.83;99440.00;5094509;28;20040;-71
2022/08/23 11:14:25;;;;;;;0.68;0.68;;;;;;;22.59;81.78;99446.47;5065435;28;20135;-68
2022/08/23 11:16:59;;;;;;;0.63;0.63;;;;;;;22.55;81.97;99443.19;5056567;28;20041;-68
2022/08/23 11:19:47;;;;;;;0.65;0.65;;;;;;;22.58;82.04;99448.22;5056515;28;20105;-69
2022/08/23 11:22:19;;;;;;;0.52;0.52;;;;;;;22.65;82.15;99440.97;5067148;28;20051;-72
2022/08/23 11:24:57;;;;;;;1.17;1.08;;;;;;;22.66;81.97;99447.84;5056816;28;20135;-69
2022/08/23 11:27:39;;;;;;;0.65;0.65;;;;;;;22.67;81.83;99439.94;5060695;28;20036;-72
2022/08/23 11:30:37;;;;;;;0.70;0.70;;;;;;;22.73;81.90;99444.00;5086903;28;20079;-68
2022/08/23 11:33:17;;;;;;;0.65;0.65;;;;;;;22.76;81.70;99443.00;5049659;28;20127;-68
2022/08/23 11:35:50;;;;;;;0.85;0.85;;;;;;;22.73;81.70;99432.72;5062065;28;20067;-69
2022/08/23 11:38:46;;;;;;;0.82;0.70;;;;;;;22.79;81.82;99440.22;5094043;28;20044;-69
2022/08/23 11:41:23;;;;;;;0.82;0.77;;;;;;;22.82;81.90;99447.88;5094230;28;20048;-69
2022/08/23 11:44:18;;;;;;;0.90;0.88;;;;;;;22.87;81.87;99451.88;5075991;28;20052;-68
2022/08/23 11:47:00;;;;;;;1.17;1.00;;;;;;;22.85;81.94;99452.88;5094217;28;20111;-68
2022/08/23 11:49:51;;;;;;;0.82;0.82;;;;;;;22.85;81.32;99447.69;5093883;28;20044;-69
2022/08/23 11:52:29;;;;;;;;;;;;;;;22.85;80.67;99452.88;5094670;28;20122;-71
2022/08/23 11:55:18;;;;;;;0.70;0.70;;;;;;;22.95;80.40;99448.88;5094156;28;19919;-69
2022/08/23 11:57:57;;;;;;;1.23;0.80;;;;;;;23.12;80.50;99446.19;5093903;28;20539;-69
2022/08/23 12:00:46;;;;;;;2.67;0.93;;;;;;;23.18;80.27;99446.66;5093693;28;20070;-70
2022/08/23 12:03:24;;;;;;;0.95;0.80;;;;;;;23.34;80.24;99447.50;5093966;28;20043;-71
2022/08/23 12:06:08;;;;;;;0.70;0.70;;;;;;;23.38;79.66;99442.97;5076150;28;20139;-69
2022/08/23 12:08:54;;;;;;;0.70;0.70;;;;;;;23.47;79.53;99447.66;5091697;28;20044;-70
2022/08/23 12:11:25;;;;;;;1.10;0.90;;;;;;;23.53;79.21;99447.31;5084213;28;20128;-70
2022/08/23 12:14:01;;;;;;;0.60;0.60;;;;;;;23.54;78.60;99449.00;5073760;28;20055;-71
2022/08/23 12:16:37;;;;;;;0.70;0.70;;;;;;;23.62;78.18;99449.41;5073378;28;20127;-70
2022/08/23 12:19:30;;;;;;;3.15;1.98;;;;;;;23.69;78.17;99442.91;5075848;28;20045;-69
2022/08/23 12:22:10;;;;;;;2.08;1.35;;;;;;;23.77;78.21;99445.91;5093521;28;20387;-69
2022/08/23 12:24:53;;;;;;;0.70;0.70;;;;;;;23.75;78.05;99447.78;5086755;28;20556;-69